sensor_id;sensor_type;location;lat;lon;timestamp;temperature;humidity
31575;DHT22;18182;1.328;103.810;2023-05-29T00:00:22;29.70;99.90
31575;DHT22;18182;1.328;103.810;2023-05-29T00:02:49;29.70;99.90
31575;DHT22;18182;1.328;103.810;2023-05-29T00:05:16;29.70;99.90
31575;DHT22;18182;1.328;103.810;2023-05-29T00:07:42;29.80;99.90
31575;DHT22;18182;1.328;103.810;2023-05-29T00:10:09;29.80;99.90
31575;DHT22;18182;1.328;103.810;2023-05-29T00:12:36;29.80;99.90
31575;DHT22;18182;1.328;103.810;2023-05-29T00:15:02;29.80;99.90
31575;DHT22;18182;1.328;103.810;2023-05-29T00:17:31;29.80;99.90
31575;DHT22;18182;1.328;103.810;2023-05-29T00:19:58;29.80;99.90
31575;DHT22;18182;1.328;103.810;2023-05-29T00:22:25;29.80;99.90
31575;DHT22;18182;1.328;103.810;2023-05-29T00:24:54;29.80;99.90
31575;DHT22;18182;1.328;103.810;2023-05-29T00:27:20;29.90;99.90
31575;DHT22;18182;1.328;103.810;2023-05-29T00:29:46;29.90;99.90
31575;DHT22;18182;1.328;103.810;2023-05-29T00:32:12;29.90;99.90
31575;DHT22;18182;1.328;103.810;2023-05-29T00:34:41;29.90;99.90
31575;DHT22;18182;1.328;103.810;2023-05-29T00:37:07;29.90;99.90
31575;DHT22;18182;1.328;103.810;2023-05-29T00:39:34;30.00;99.90
31575;DHT22;18182;1.328;103.810;2023-05-29T00:42:00;30.00;99.90
31575;DHT22;18182;1.328;103.810;2023-05-29T00:44:26;29.90;99.90
31575;DHT22;18182;1.328;103.810;2023-05-29T00:46:52;30.00;99.90
31575;DHT22;18182;1.328;103.810;2023-05-29T00:49:19;30.00;99.90
31575;DHT22;18182;1.328;103.810;2023-05-29T00:51:46;30.00;99.90
31575;DHT22;18182;1.328;103.810;2023-05-29T00:54:14;30.00;99.90
31575;DHT22;18182;1.328;103.810;2023-05-29T00:56:43;30.00;99.90
31575;DHT22;18182;1.328;103.810;2023-05-29T00:59:10;30.00;99.90
31575;DHT22;18182;1.328;103.810;2023-05-29T01:01:36;30.00;99.90
31575;DHT22;18182;1.328;103.810;2023-05-29T01:04:03;29.90;99.90
31575;DHT22;18182;1.328;103.810;2023-05-29T01:06:32;30.00;99.90
31575;DHT22;18182;1.328;103.810;2023-05-29T01:08:58;30.00;99.90
31575;DHT22;18182;1.328;103.810;2023-05-29T01:13:51;30.00;99.90
31575;DHT22;18182;1.328;103.810;2023-05-29T01:16:38;30.00;99.90
31575;DHT22;18182;1.328;103.810;2023-05-29T01:22:46;30.00;99.90
31575;DHT22;18182;1.328;103.810;2023-05-29T01:24:49;30.00;99.90
31575;DHT22;18182;1.328;103.810;2023-05-29T01:27:18;30.00;99.90
31575;DHT22;18182;1.328;103.810;2023-05-29T01:29:46;30.00;99.90
31575;DHT22;18182;1.328;103.810;2023-05-29T01:32:13;30.00;99.90
31575;DHT22;18182;1.328;103.810;2023-05-29T01:34:39;30.00;99.90
31575;DHT22;18182;1.328;103.810;2023-05-29T01:37:05;30.10;99.90
31575;DHT22;18182;1.328;103.810;2023-05-29T01:39:32;30.20;99.90
31575;DHT22;18182;1.328;103.810;2023-05-29T01:41:59;30.20;99.90
31575;DHT22;18182;1.328;103.810;2023-05-29T01:44:25;30.30;99.90
31575;DHT22;18182;1.328;103.810;2023-05-29T01:46:52;30.40;99.90
31575;DHT22;18182;1.328;103.810;2023-05-29T01:49:19;30.50;99.90
31575;DHT22;18182;1.328;103.810;2023-05-29T01:51:46;30.50;99.90
31575;DHT22;18182;1.328;103.810;2023-05-29T01:54:12;30.50;99.90
31575;DHT22;18182;1.328;103.810;2023-05-29T01:56:39;30.50;99.90
31575;DHT22;18182;1.328;103.810;2023-05-29T01:59:05;30.50;99.90
31575;DHT22;18182;1.328;103.810;2023-05-29T02:01:31;30.50;99.90
31575;DHT22;18182;1.328;103.810;2023-05-29T02:03:58;30.50;99.90
31575;DHT22;18182;1.328;103.810;2023-05-29T02:06:24;30.50;99.90
31575;DHT22;18182;1.328;103.810;2023-05-29T02:08:50;30.50;99.90
31575;DHT22;18182;1.328;103.810;2023-05-29T02:11:17;30.60;99.90
31575;DHT22;18182;1.328;103.810;2023-05-29T02:13:43;30.60;99.90
31575;DHT22;18182;1.328;103.810;2023-05-29T02:16:09;30.70;99.90
31575;DHT22;18182;1.328;103.810;2023-05-29T02:18:35;30.80;99.90
31575;DHT22;18182;1.328;103.810;2023-05-29T02:21:02;30.90;99.90
31575;DHT22;18182;1.328;103.810;2023-05-29T02:23:28;31.10;99.90
31575;DHT22;18182;1.328;103.810;2023-05-29T02:25:54;31.20;99.90
31575;DHT22;18182;1.328;103.810;2023-05-29T02:28:20;31.20;99.90
31575;DHT22;18182;1.328;103.810;2023-05-29T02:30:47;31.20;99.90
31575;DHT22;18182;1.328;103.810;2023-05-29T02:33:13;31.20;99.90
31575;DHT22;18182;1.328;103.810;2023-05-29T02:35:39;31.20;99.90
31575;DHT22;18182;1.328;103.810;2023-05-29T02:38:05;31.20;99.90
31575;DHT22;18182;1.328;103.810;2023-05-29T02:40:31;31.20;99.90
31575;DHT22;18182;1.328;103.810;2023-05-29T02:42:57;31.20;99.90
31575;DHT22;18182;1.328;103.810;2023-05-29T02:45:23;31.20;99.90
31575;DHT22;18182;1.328;103.810;2023-05-29T02:47:53;31.20;99.90
31575;DHT22;18182;1.328;103.810;2023-05-29T02:50:19;31.20;99.90
31575;DHT22;18182;1.328;103.810;2023-05-29T02:52:45;31.30;99.90
31575;DHT22;18182;1.328;103.810;2023-05-29T02:55:11;31.30;99.90
31575;DHT22;18182;1.328;103.810;2023-05-29T02:57:37;31.20;99.90
31575;DHT22;18182;1.328;103.810;2023-05-29T03:00:04;31.10;99.90
31575;DHT22;18182;1.328;103.810;2023-05-29T03:02:33;31.10;99.90
31575;DHT22;18182;1.328;103.810;2023-05-29T03:05:00;31.20;99.90
31575;DHT22;18182;1.328;103.810;2023-05-29T03:07:27;31.40;99.90
31575;DHT22;18182;1.328;103.810;2023-05-29T03:09:53;31.60;99.90
31575;DHT22;18182;1.328;103.810;2023-05-29T03:12:19;31.60;99.90
31575;DHT22;18182;1.328;103.810;2023-05-29T03:14:45;31.70;99.90
31575;DHT22;18182;1.328;103.810;2023-05-29T03:17:12;31.70;99.90
31575;DHT22;18182;1.328;103.810;2023-05-29T03:19:38;31.70;99.90
31575;DHT22;18182;1.328;103.810;2023-05-29T03:22:06;31.90;99.90
31575;DHT22;18182;1.328;103.810;2023-05-29T03:24:32;32.00;99.90
31575;DHT22;18182;1.328;103.810;2023-05-29T03:27:01;32.10;99.90
31575;DHT22;18182;1.328;103.810;2023-05-29T03:29:29;32.10;99.90
31575;DHT22;18182;1.328;103.810;2023-05-29T03:31:55;32.10;99.90
31575;DHT22;18182;1.328;103.810;2023-05-29T03:34:21;32.10;99.90
31575;DHT22;18182;1.328;103.810;2023-05-29T03:36:48;32.10;99.90
31575;DHT22;18182;1.328;103.810;2023-05-29T03:39:14;32.20;99.90
31575;DHT22;18182;1.328;103.810;2023-05-29T03:41:40;32.20;99.90
31575;DHT22;18182;1.328;103.810;2023-05-29T03:44:07;32.30;99.90
31575;DHT22;18182;1.328;103.810;2023-05-29T03:46:34;32.20;99.90
31575;DHT22;18182;1.328;103.810;2023-05-29T03:49:00;32.20;99.90
31575;DHT22;18182;1.328;103.810;2023-05-29T03:51:26;32.20;99.90
31575;DHT22;18182;1.328;103.810;2023-05-29T03:53:52;32.30;99.90
31575;DHT22;18182;1.328;103.810;2023-05-29T03:56:18;32.40;99.90
31575;DHT22;18182;1.328;103.810;2023-05-29T03:58:44;32.20;99.90
31575;DHT22;18182;1.328;103.810;2023-05-29T04:01:10;32.10;99.90
31575;DHT22;18182;1.328;103.810;2023-05-29T04:03:36;31.90;99.90
31575;DHT22;18182;1.328;103.810;2023-05-29T04:06:03;31.80;99.90
31575;DHT22;18182;1.328;103.810;2023-05-29T04:08:29;31.80;99.90
31575;DHT22;18182;1.328;103.810;2023-05-29T04:10:56;31.80;99.90
31575;DHT22;18182;1.328;103.810;2023-05-29T04:13:22;31.70;99.90
31575;DHT22;18182;1.328;103.810;2023-05-29T04:15:48;31.80;99.90
31575;DHT22;18182;1.328;103.810;2023-05-29T04:18:14;31.70;99.90
31575;DHT22;18182;1.328;103.810;2023-05-29T04:20:41;31.80;99.90
31575;DHT22;18182;1.328;103.810;2023-05-29T04:23:07;31.90;99.90
31575;DHT22;18182;1.328;103.810;2023-05-29T04:25:33;32.00;99.90
31575;DHT22;18182;1.328;103.810;2023-05-29T04:27:59;32.20;99.90
31575;DHT22;18182;1.328;103.810;2023-05-29T04:30:28;32.30;99.90
31575;DHT22;18182;1.328;103.810;2023-05-29T04:32:54;32.30;99.90
31575;DHT22;18182;1.328;103.810;2023-05-29T04:35:20;32.30;99.90
31575;DHT22;18182;1.328;103.810;2023-05-29T04:37:50;32.20;99.90
31575;DHT22;18182;1.328;103.810;2023-05-29T04:40:18;32.20;99.90
31575;DHT22;18182;1.328;103.810;2023-05-29T04:42:46;32.30;99.90
31575;DHT22;18182;1.328;103.810;2023-05-29T04:45:12;32.30;99.90
31575;DHT22;18182;1.328;103.810;2023-05-29T04:47:38;32.10;99.90
31575;DHT22;18182;1.328;103.810;2023-05-29T04:50:10;32.10;99.90
31575;DHT22;18182;1.328;103.810;2023-05-29T04:52:36;32.00;99.90
31575;DHT22;18182;1.328;103.810;2023-05-29T04:55:03;31.90;99.90
31575;DHT22;18182;1.328;103.810;2023-05-29T04:57:29;31.90;99.90
31575;DHT22;18182;1.328;103.810;2023-05-29T04:59:56;32.00;99.90
31575;DHT22;18182;1.328;103.810;2023-05-29T05:02:22;31.90;99.90
31575;DHT22;18182;1.328;103.810;2023-05-29T05:04:48;32.00;99.90
31575;DHT22;18182;1.328;103.810;2023-05-29T05:07:15;32.00;99.90
31575;DHT22;18182;1.328;103.810;2023-05-29T05:09:42;32.00;99.90
31575;DHT22;18182;1.328;103.810;2023-05-29T05:12:08;32.00;99.90
31575;DHT22;18182;1.328;103.810;2023-05-29T05:14:34;32.00;99.90
31575;DHT22;18182;1.328;103.810;2023-05-29T05:17:00;32.10;99.90
31575;DHT22;18182;1.328;103.810;2023-05-29T05:19:26;32.10;99.90
31575;DHT22;18182;1.328;103.810;2023-05-29T05:21:52;32.20;99.90
31575;DHT22;18182;1.328;103.810;2023-05-29T05:24:19;32.30;99.90
31575;DHT22;18182;1.328;103.810;2023-05-29T05:26:45;32.30;99.90
31575;DHT22;18182;1.328;103.810;2023-05-29T05:29:11;32.40;99.90
31575;DHT22;18182;1.328;103.810;2023-05-29T05:31:37;32.50;99.90
31575;DHT22;18182;1.328;103.810;2023-05-29T05:34:03;32.40;99.90
31575;DHT22;18182;1.328;103.810;2023-05-29T05:36:29;32.30;99.90
31575;DHT22;18182;1.328;103.810;2023-05-29T05:38:56;32.20;99.90
31575;DHT22;18182;1.328;103.810;2023-05-29T05:41:22;32.20;99.90
31575;DHT22;18182;1.328;103.810;2023-05-29T05:43:49;32.40;99.90
31575;DHT22;18182;1.328;103.810;2023-05-29T05:46:15;32.50;99.90
31575;DHT22;18182;1.328;103.810;2023-05-29T05:48:43;32.60;99.90
31575;DHT22;18182;1.328;103.810;2023-05-29T05:51:09;32.60;99.90
31575;DHT22;18182;1.328;103.810;2023-05-29T05:53:37;32.60;99.90
31575;DHT22;18182;1.328;103.810;2023-05-29T05:56:03;32.50;99.90
31575;DHT22;18182;1.328;103.810;2023-05-29T05:58:29;32.40;99.90
31575;DHT22;18182;1.328;103.810;2023-05-29T06:00:55;32.30;99.90
31575;DHT22;18182;1.328;103.810;2023-05-29T06:03:22;32.30;99.90
31575;DHT22;18182;1.328;103.810;2023-05-29T06:05:49;32.20;99.90
31575;DHT22;18182;1.328;103.810;2023-05-29T06:08:16;32.10;99.90
31575;DHT22;18182;1.328;103.810;2023-05-29T06:10:43;32.10;99.90
31575;DHT22;18182;1.328;103.810;2023-05-29T06:13:11;32.20;99.90
31575;DHT22;18182;1.328;103.810;2023-05-29T06:15:37;32.10;99.90
31575;DHT22;18182;1.328;103.810;2023-05-29T06:18:04;32.10;99.90
31575;DHT22;18182;1.328;103.810;2023-05-29T06:20:30;32.20;99.90
31575;DHT22;18182;1.328;103.810;2023-05-29T06:22:56;32.20;99.90
31575;DHT22;18182;1.328;103.810;2023-05-29T06:25:23;32.20;99.90
31575;DHT22;18182;1.328;103.810;2023-05-29T06:27:57;32.30;99.90
31575;DHT22;18182;1.328;103.810;2023-05-29T06:30:24;32.50;99.90
31575;DHT22;18182;1.328;103.810;2023-05-29T06:32:50;32.60;99.90
31575;DHT22;18182;1.328;103.810;2023-05-29T06:35:16;32.60;99.90
31575;DHT22;18182;1.328;103.810;2023-05-29T06:37:42;32.60;99.90
31575;DHT22;18182;1.328;103.810;2023-05-29T06:40:08;32.60;99.90
31575;DHT22;18182;1.328;103.810;2023-05-29T06:42:35;32.70;99.90
31575;DHT22;18182;1.328;103.810;2023-05-29T06:45:02;32.60;99.90
31575;DHT22;18182;1.328;103.810;2023-05-29T06:47:28;32.50;99.90
31575;DHT22;18182;1.328;103.810;2023-05-29T06:49:54;32.50;99.90
31575;DHT22;18182;1.328;103.810;2023-05-29T06:52:20;32.50;99.90
31575;DHT22;18182;1.328;103.810;2023-05-29T06:54:46;32.50;99.90
31575;DHT22;18182;1.328;103.810;2023-05-29T06:57:12;32.50;99.90
31575;DHT22;18182;1.328;103.810;2023-05-29T06:59:39;32.60;99.90
31575;DHT22;18182;1.328;103.810;2023-05-29T07:02:05;32.70;99.90
31575;DHT22;18182;1.328;103.810;2023-05-29T07:04:31;32.70;99.90
31575;DHT22;18182;1.328;103.810;2023-05-29T07:06:57;32.80;99.90
31575;DHT22;18182;1.328;103.810;2023-05-29T07:09:23;32.80;99.90
31575;DHT22;18182;1.328;103.810;2023-05-29T07:11:51;32.80;99.90
31575;DHT22;18182;1.328;103.810;2023-05-29T07:14:17;32.80;99.90
31575;DHT22;18182;1.328;103.810;2023-05-29T07:16:43;32.70;99.90
31575;DHT22;18182;1.328;103.810;2023-05-29T07:19:09;32.80;99.90
31575;DHT22;18182;1.328;103.810;2023-05-29T07:21:36;32.90;99.90
31575;DHT22;18182;1.328;103.810;2023-05-29T07:24:03;33.00;99.90
31575;DHT22;18182;1.328;103.810;2023-05-29T07:26:29;33.10;99.90
31575;DHT22;18182;1.328;103.810;2023-05-29T07:28:56;33.10;99.90
31575;DHT22;18182;1.328;103.810;2023-05-29T07:31:22;33.10;99.90
31575;DHT22;18182;1.328;103.810;2023-05-29T07:33:48;33.00;99.90
31575;DHT22;18182;1.328;103.810;2023-05-29T07:36:15;32.90;99.90
31575;DHT22;18182;1.328;103.810;2023-05-29T07:38:43;32.90;99.90
31575;DHT22;18182;1.328;103.810;2023-05-29T07:41:10;32.90;99.90
31575;DHT22;18182;1.328;103.810;2023-05-29T07:43:36;33.00;99.90
31575;DHT22;18182;1.328;103.810;2023-05-29T07:46:02;33.10;99.90
31575;DHT22;18182;1.328;103.810;2023-05-29T07:48:29;33.00;99.90
31575;DHT22;18182;1.328;103.810;2023-05-29T07:50:55;33.10;99.90
31575;DHT22;18182;1.328;103.810;2023-05-29T07:53:21;33.10;99.90
31575;DHT22;18182;1.328;103.810;2023-05-29T07:55:47;33.00;99.90
31575;DHT22;18182;1.328;103.810;2023-05-29T07:58:13;33.10;99.90
31575;DHT22;18182;1.328;103.810;2023-05-29T08:00:43;33.10;99.90
31575;DHT22;18182;1.328;103.810;2023-05-29T08:03:09;33.10;99.90
31575;DHT22;18182;1.328;103.810;2023-05-29T08:05:37;33.10;99.90
31575;DHT22;18182;1.328;103.810;2023-05-29T08:08:03;33.10;99.90
31575;DHT22;18182;1.328;103.810;2023-05-29T08:10:29;33.20;99.90
31575;DHT22;18182;1.328;103.810;2023-05-29T08:12:55;33.20;99.90
31575;DHT22;18182;1.328;103.810;2023-05-29T08:15:22;33.10;99.90
31575;DHT22;18182;1.328;103.810;2023-05-29T08:17:49;33.10;99.90
31575;DHT22;18182;1.328;103.810;2023-05-29T08:20:15;33.10;99.90
31575;DHT22;18182;1.328;103.810;2023-05-29T08:22:42;33.10;99.90
31575;DHT22;18182;1.328;103.810;2023-05-29T08:25:08;33.10;99.90
31575;DHT22;18182;1.328;103.810;2023-05-29T08:27:35;33.00;99.90
31575;DHT22;18182;1.328;103.810;2023-05-29T08:30:02;32.90;99.90
31575;DHT22;18182;1.328;103.810;2023-05-29T08:32:28;32.90;99.90
31575;DHT22;18182;1.328;103.810;2023-05-29T08:34:54;32.80;99.90
31575;DHT22;18182;1.328;103.810;2023-05-29T08:37:20;32.80;99.90
31575;DHT22;18182;1.328;103.810;2023-05-29T08:39:46;32.70;99.90
31575;DHT22;18182;1.328;103.810;2023-05-29T08:42:13;32.70;99.90
31575;DHT22;18182;1.328;103.810;2023-05-29T08:44:44;32.60;99.90
31575;DHT22;18182;1.328;103.810;2023-05-29T08:47:12;32.60;99.90
31575;DHT22;18182;1.328;103.810;2023-05-29T08:49:43;32.60;99.90
31575;DHT22;18182;1.328;103.810;2023-05-29T08:52:22;32.50;99.90
31575;DHT22;18182;1.328;103.810;2023-05-29T08:54:48;32.50;99.90
31575;DHT22;18182;1.328;103.810;2023-05-29T08:57:15;32.50;99.90
31575;DHT22;18182;1.328;103.810;2023-05-29T08:59:43;32.50;99.90
31575;DHT22;18182;1.328;103.810;2023-05-29T09:02:10;32.50;99.90
31575;DHT22;18182;1.328;103.810;2023-05-29T09:04:43;32.50;99.90
31575;DHT22;18182;1.328;103.810;2023-05-29T09:07:17;32.50;99.90
31575;DHT22;18182;1.328;103.810;2023-05-29T09:09:44;32.50;99.90
31575;DHT22;18182;1.328;103.810;2023-05-29T09:12:10;32.40;99.90
31575;DHT22;18182;1.328;103.810;2023-05-29T09:14:38;32.40;99.90
31575;DHT22;18182;1.328;103.810;2023-05-29T09:17:05;32.50;99.90
31575;DHT22;18182;1.328;103.810;2023-05-29T09:19:32;32.40;99.90
31575;DHT22;18182;1.328;103.810;2023-05-29T09:22:03;32.40;99.90
31575;DHT22;18182;1.328;103.810;2023-05-29T09:24:29;32.40;99.90
31575;DHT22;18182;1.328;103.810;2023-05-29T09:26:56;32.30;99.90
31575;DHT22;18182;1.328;103.810;2023-05-29T09:29:24;32.20;99.90
31575;DHT22;18182;1.328;103.810;2023-05-29T09:31:51;32.20;99.90
31575;DHT22;18182;1.328;103.810;2023-05-29T09:34:17;32.20;99.90
31575;DHT22;18182;1.328;103.810;2023-05-29T09:36:43;32.30;99.90
31575;DHT22;18182;1.328;103.810;2023-05-29T09:39:10;32.30;99.90
31575;DHT22;18182;1.328;103.810;2023-05-29T09:41:41;32.40;99.90
31575;DHT22;18182;1.328;103.810;2023-05-29T09:44:07;32.40;99.90
31575;DHT22;18182;1.328;103.810;2023-05-29T09:46:36;32.40;99.80
31575;DHT22;18182;1.328;103.810;2023-05-29T09:49:02;32.40;99.40
31575;DHT22;18182;1.328;103.810;2023-05-29T09:51:31;32.30;99.40
31575;DHT22;18182;1.328;103.810;2023-05-29T09:53:57;32.20;99.50
31575;DHT22;18182;1.328;103.810;2023-05-29T09:56:26;32.20;99.90
31575;DHT22;18182;1.328;103.810;2023-05-29T09:58:53;32.20;99.90
31575;DHT22;18182;1.328;103.810;2023-05-29T10:01:19;32.20;99.90
31575;DHT22;18182;1.328;103.810;2023-05-29T10:03:47;32.30;99.90
31575;DHT22;18182;1.328;103.810;2023-05-29T10:06:15;32.20;99.90
31575;DHT22;18182;1.328;103.810;2023-05-29T10:08:46;32.20;99.90
31575;DHT22;18182;1.328;103.810;2023-05-29T10:11:20;32.20;99.90
31575;DHT22;18182;1.328;103.810;2023-05-29T10:13:50;32.20;99.90
31575;DHT22;18182;1.328;103.810;2023-05-29T10:16:18;32.20;99.60
31575;DHT22;18182;1.328;103.810;2023-05-29T10:18:50;32.10;99.90
31575;DHT22;18182;1.328;103.810;2023-05-29T10:21:20;32.10;99.90
31575;DHT22;18182;1.328;103.810;2023-05-29T10:23:50;32.00;99.90
31575;DHT22;18182;1.328;103.810;2023-05-29T10:26:24;32.10;99.90
31575;DHT22;18182;1.328;103.810;2023-05-29T10:28:58;32.10;99.90
31575;DHT22;18182;1.328;103.810;2023-05-29T10:31:30;32.10;99.90
31575;DHT22;18182;1.328;103.810;2023-05-29T10:36:44;32.00;99.90
31575;DHT22;18182;1.328;103.810;2023-05-29T10:39:12;32.00;99.90
31575;DHT22;18182;1.328;103.810;2023-05-29T10:41:38;32.00;99.90
31575;DHT22;18182;1.328;103.810;2023-05-29T10:44:37;32.00;99.90
31575;DHT22;18182;1.328;103.810;2023-05-29T10:49:25;31.90;99.90
31575;DHT22;18182;1.328;103.810;2023-05-29T10:51:52;31.90;99.90
31575;DHT22;18182;1.328;103.810;2023-05-29T10:54:19;31.90;99.90
31575;DHT22;18182;1.328;103.810;2023-05-29T10:56:52;31.80;99.90
31575;DHT22;18182;1.328;103.810;2023-05-29T10:59:20;31.80;99.90
31575;DHT22;18182;1.328;103.810;2023-05-29T11:01:47;31.90;99.90
31575;DHT22;18182;1.328;103.810;2023-05-29T11:06:47;31.70;99.90
31575;DHT22;18182;1.328;103.810;2023-05-29T11:09:29;31.80;99.90
31575;DHT22;18182;1.328;103.810;2023-05-29T11:15:00;31.70;99.90
31575;DHT22;18182;1.328;103.810;2023-05-29T11:20:03;31.70;99.90
31575;DHT22;18182;1.328;103.810;2023-05-29T11:25:14;31.70;99.90
31575;DHT22;18182;1.328;103.810;2023-05-29T11:27:41;31.70;99.90
31575;DHT22;18182;1.328;103.810;2023-05-29T11:30:08;31.60;99.90
31575;DHT22;18182;1.328;103.810;2023-05-29T11:32:34;31.60;99.90
31575;DHT22;18182;1.328;103.810;2023-05-29T11:35:04;31.50;99.90
31575;DHT22;18182;1.328;103.810;2023-05-29T11:37:33;31.50;99.90
31575;DHT22;18182;1.328;103.810;2023-05-29T11:39:59;31.50;99.90
31575;DHT22;18182;1.328;103.810;2023-05-29T11:42:26;31.40;99.90
31575;DHT22;18182;1.328;103.810;2023-05-29T11:44:52;31.40;99.90
31575;DHT22;18182;1.328;103.810;2023-05-29T11:47:18;31.40;99.90
31575;DHT22;18182;1.328;103.810;2023-05-29T11:49:45;31.50;99.90
31575;DHT22;18182;1.328;103.810;2023-05-29T11:52:12;31.50;99.90
31575;DHT22;18182;1.328;103.810;2023-05-29T11:54:39;31.50;99.90
31575;DHT22;18182;1.328;103.810;2023-05-29T11:57:21;31.50;99.90
31575;DHT22;18182;1.328;103.810;2023-05-29T11:59:49;31.50;99.90
31575;DHT22;18182;1.328;103.810;2023-05-29T12:02:17;31.40;99.90
31575;DHT22;18182;1.328;103.810;2023-05-29T12:04:59;31.50;99.90
31575;DHT22;18182;1.328;103.810;2023-05-29T12:07:25;31.40;99.90
31575;DHT22;18182;1.328;103.810;2023-05-29T12:09:51;31.50;99.90
31575;DHT22;18182;1.328;103.810;2023-05-29T12:12:18;31.40;99.90
31575;DHT22;18182;1.328;103.810;2023-05-29T12:14:44;31.40;99.90
31575;DHT22;18182;1.328;103.810;2023-05-29T12:17:15;31.50;99.90
31575;DHT22;18182;1.328;103.810;2023-05-29T12:19:41;31.50;99.90
31575;DHT22;18182;1.328;103.810;2023-05-29T12:22:07;31.50;99.90
31575;DHT22;18182;1.328;103.810;2023-05-29T12:24:34;31.40;99.90
31575;DHT22;18182;1.328;103.810;2023-05-29T12:27:03;31.40;99.90
31575;DHT22;18182;1.328;103.810;2023-05-29T12:29:30;31.40;99.90
31575;DHT22;18182;1.328;103.810;2023-05-29T12:31:59;31.50;99.90
31575;DHT22;18182;1.328;103.810;2023-05-29T12:34:25;31.40;99.90
31575;DHT22;18182;1.328;103.810;2023-05-29T12:36:51;31.40;99.90
31575;DHT22;18182;1.328;103.810;2023-05-29T12:39:18;31.50;99.90
31575;DHT22;18182;1.328;103.810;2023-05-29T12:41:44;31.40;99.90
31575;DHT22;18182;1.328;103.810;2023-05-29T12:44:10;31.30;99.90
31575;DHT22;18182;1.328;103.810;2023-05-29T12:49:12;31.40;99.90
31575;DHT22;18182;1.328;103.810;2023-05-29T12:51:42;31.40;99.90
31575;DHT22;18182;1.328;103.810;2023-05-29T12:54:10;31.40;99.90
31575;DHT22;18182;1.328;103.810;2023-05-29T12:56:37;31.50;99.90
31575;DHT22;18182;1.328;103.810;2023-05-29T12:59:09;31.50;99.90
31575;DHT22;18182;1.328;103.810;2023-05-29T13:01:38;31.50;99.90
31575;DHT22;18182;1.328;103.810;2023-05-29T13:04:04;31.50;99.90
31575;DHT22;18182;1.328;103.810;2023-05-29T13:06:35;31.50;99.90
31575;DHT22;18182;1.328;103.810;2023-05-29T13:09:01;31.50;99.90
31575;DHT22;18182;1.328;103.810;2023-05-29T13:11:27;31.40;99.90
31575;DHT22;18182;1.328;103.810;2023-05-29T13:13:53;31.40;99.90
31575;DHT22;18182;1.328;103.810;2023-05-29T13:16:19;31.40;99.90
31575;DHT22;18182;1.328;103.810;2023-05-29T13:18:46;31.40;99.90
31575;DHT22;18182;1.328;103.810;2023-05-29T13:21:12;31.30;99.90
31575;DHT22;18182;1.328;103.810;2023-05-29T13:23:38;31.30;99.90
31575;DHT22;18182;1.328;103.810;2023-05-29T13:26:04;31.30;99.90
31575;DHT22;18182;1.328;103.810;2023-05-29T13:28:31;31.30;99.90
31575;DHT22;18182;1.328;103.810;2023-05-29T13:30:57;31.20;99.90
31575;DHT22;18182;1.328;103.810;2023-05-29T13:33:23;31.20;99.90
31575;DHT22;18182;1.328;103.810;2023-05-29T13:35:49;31.20;99.90
31575;DHT22;18182;1.328;103.810;2023-05-29T13:38:16;31.20;99.90
31575;DHT22;18182;1.328;103.810;2023-05-29T13:40:42;31.20;99.90
31575;DHT22;18182;1.328;103.810;2023-05-29T13:43:08;31.20;99.90
31575;DHT22;18182;1.328;103.810;2023-05-29T13:45:34;31.20;99.90
31575;DHT22;18182;1.328;103.810;2023-05-29T13:48:00;31.20;99.90
31575;DHT22;18182;1.328;103.810;2023-05-29T13:50:26;31.20;99.90
31575;DHT22;18182;1.328;103.810;2023-05-29T13:52:52;31.20;99.90
31575;DHT22;18182;1.328;103.810;2023-05-29T13:55:19;31.20;99.90
31575;DHT22;18182;1.328;103.810;2023-05-29T13:57:45;31.20;99.90
31575;DHT22;18182;1.328;103.810;2023-05-29T14:00:11;31.20;99.90
31575;DHT22;18182;1.328;103.810;2023-05-29T14:02:38;31.20;99.90
31575;DHT22;18182;1.328;103.810;2023-05-29T14:05:04;31.10;99.90
31575;DHT22;18182;1.328;103.810;2023-05-29T14:07:31;31.20;99.90
31575;DHT22;18182;1.328;103.810;2023-05-29T14:09:57;31.10;99.90
31575;DHT22;18182;1.328;103.810;2023-05-29T14:12:24;31.10;99.90
31575;DHT22;18182;1.328;103.810;2023-05-29T14:14:50;31.00;99.90
31575;DHT22;18182;1.328;103.810;2023-05-29T14:17:16;31.00;99.90
31575;DHT22;18182;1.328;103.810;2023-05-29T14:19:42;31.00;99.90
31575;DHT22;18182;1.328;103.810;2023-05-29T14:22:11;31.00;99.90
31575;DHT22;18182;1.328;103.810;2023-05-29T14:24:37;31.00;99.90
31575;DHT22;18182;1.328;103.810;2023-05-29T14:27:03;31.00;99.90
31575;DHT22;18182;1.328;103.810;2023-05-29T14:29:29;31.00;99.90
31575;DHT22;18182;1.328;103.810;2023-05-29T14:31:55;31.00;99.90
31575;DHT22;18182;1.328;103.810;2023-05-29T14:34:21;31.00;99.90
31575;DHT22;18182;1.328;103.810;2023-05-29T14:36:48;31.00;99.90
31575;DHT22;18182;1.328;103.810;2023-05-29T14:39:14;31.00;99.90
31575;DHT22;18182;1.328;103.810;2023-05-29T14:41:40;31.00;99.90
31575;DHT22;18182;1.328;103.810;2023-05-29T14:44:06;31.00;99.90
31575;DHT22;18182;1.328;103.810;2023-05-29T14:46:32;31.00;99.90
31575;DHT22;18182;1.328;103.810;2023-05-29T14:48:59;31.00;99.90
31575;DHT22;18182;1.328;103.810;2023-05-29T14:51:25;31.00;99.90
31575;DHT22;18182;1.328;103.810;2023-05-29T14:53:51;31.00;99.90
31575;DHT22;18182;1.328;103.810;2023-05-29T14:56:17;31.00;99.90
31575;DHT22;18182;1.328;103.810;2023-05-29T14:58:44;30.90;99.90
31575;DHT22;18182;1.328;103.810;2023-05-29T15:01:11;30.90;99.90
31575;DHT22;18182;1.328;103.810;2023-05-29T15:03:37;30.90;99.90
31575;DHT22;18182;1.328;103.810;2023-05-29T15:06:03;30.90;99.90
31575;DHT22;18182;1.328;103.810;2023-05-29T15:08:32;30.90;99.90
31575;DHT22;18182;1.328;103.810;2023-05-29T15:11:02;30.80;99.90
31575;DHT22;18182;1.328;103.810;2023-05-29T15:13:29;30.70;99.90
31575;DHT22;18182;1.328;103.810;2023-05-29T15:15:56;30.70;99.90
31575;DHT22;18182;1.328;103.810;2023-05-29T15:18:25;30.70;99.90
31575;DHT22;18182;1.328;103.810;2023-05-29T15:20:52;30.70;99.90
31575;DHT22;18182;1.328;103.810;2023-05-29T15:23:18;30.70;99.90
31575;DHT22;18182;1.328;103.810;2023-05-29T15:25:48;30.80;99.90
31575;DHT22;18182;1.328;103.810;2023-05-29T15:28:16;30.70;99.90
31575;DHT22;18182;1.328;103.810;2023-05-29T15:30:43;30.70;99.90
31575;DHT22;18182;1.328;103.810;2023-05-29T15:33:09;30.70;99.90
31575;DHT22;18182;1.328;103.810;2023-05-29T15:35:38;30.70;99.90
31575;DHT22;18182;1.328;103.810;2023-05-29T15:38:07;30.70;99.90